Time;durP1;ratioP1;P1;durP2;ratioP2;P2;SDS_P1;SDS_P2;PMS_P1;PMS_P2;Temp;Humidity;BMP_temperature;BMP_pressure;BME280_temperature;BME280_humidity;BME280_pressure;Samples;Min_cycle;Max_cycle;Signal;HPM_P1;HPM_P2
2023/07/30 00:00:28;;;;;;;4.75;2.88;;;;;;;22.36;48.83;94815.72;5111120;28;20604;-75
2023/07/30 00:02:53;;;;;;;3.80;2.70;;;;;;;22.30;48.82;94815.00;5110005;28;20012;-75
2023/07/30 00:05:19;;;;;;;3.25;2.50;;;;;;;22.27;48.73;94828.00;5109894;28;20588;-74
2023/07/30 00:07:44;;;;;;;3.95;2.42;;;;;;;22.22;49.10;94819.63;5110541;28;20031;-75
2023/07/30 00:10:10;;;;;;;4.30;2.58;;;;;;;22.15;48.79;94823.00;5108925;28;20600;-75
2023/07/30 00:12:35;;;;;;;3.67;2.83;;;;;;;22.15;49.23;94820.94;5110438;28;20023;-74
2023/07/30 00:15:00;;;;;;;3.60;2.55;;;;;;;22.10;49.16;94815.38;5108661;28;20020;-74
2023/07/30 00:17:26;;;;;;;4.13;2.60;;;;;;;22.06;49.06;94824.00;5110195;28;20043;-75
2023/07/30 00:19:51;;;;;;;5.13;2.60;;;;;;;22.04;49.06;94820.22;5109088;28;20020;-74
2023/07/30 00:22:16;;;;;;;3.20;2.60;;;;;;;21.99;49.31;94825.31;5111093;28;20024;-74
2023/07/30 00:24:42;;;;;;;4.85;3.00;;;;;;;21.94;49.63;94808.53;5110580;28;20024;-75
2023/07/30 00:27:07;;;;;;;4.90;2.65;;;;;;;21.93;49.61;94813.38;5109241;28;20110;-75
2023/07/30 00:29:32;;;;;;;4.53;2.75;;;;;;;21.86;49.70;94810.38;5110627;28;20088;-75
2023/07/30 00:31:58;;;;;;;4.28;2.78;;;;;;;21.85;50.05;94800.41;5107232;28;20423;-75
2023/07/30 00:34:24;;;;;;;4.45;2.75;;;;;;;21.86;49.97;94807.56;5110296;28;20069;-74
2023/07/30 00:36:49;;;;;;;5.32;2.38;;;;;;;21.83;49.85;94806.53;5108287;28;20031;-75
2023/07/30 00:39:14;;;;;;;3.78;2.90;;;;;;;21.79;50.01;94796.88;5110295;28;20020;-75
2023/07/30 00:41:40;;;;;;;4.68;2.92;;;;;;;21.79;49.88;94796.88;5107860;28;20020;-75
2023/07/30 00:44:05;;;;;;;4.82;2.75;;;;;;;21.72;50.24;94798.94;5109624;28;20023;-75
2023/07/30 00:46:31;;;;;;;3.75;2.90;;;;;;;21.72;50.06;94804.53;5109659;28;20023;-75
2023/07/30 00:48:56;;;;;;;3.67;2.55;;;;;;;21.71;50.27;94805.81;5108461;28;20035;-74
2023/07/30 00:51:22;;;;;;;5.82;2.97;;;;;;;21.68;50.36;94806.09;5109876;28;20103;-75
2023/07/30 00:53:48;;;;;;;4.50;2.78;;;;;;;21.67;50.83;94810.16;5106511;28;20068;-75
2023/07/30 00:56:14;;;;;;;5.07;3.30;;;;;;;21.62;50.83;94802.53;5110137;28;20416;-75
2023/07/30 00:58:40;;;;;;;4.05;2.90;;;;;;;21.61;51.11;94803.81;5106466;28;20499;-74
2023/07/30 01:01:06;;;;;;;6.75;3.03;;;;;;;21.58;50.98;94807.66;5108171;28;20024;-74
2023/07/30 01:03:32;;;;;;;3.10;2.65;;;;;;;21.53;51.23;94805.63;5109008;28;20504;-75
2023/07/30 01:05:58;;;;;;;5.82;3.05;;;;;;;21.53;50.73;94809.19;5108304;28;20024;-75
2023/07/30 01:08:23;;;;;;;5.55;2.95;;;;;;;21.52;50.92;94806.91;5108186;28;20071;-75
2023/07/30 01:10:48;;;;;;;4.55;2.60;;;;;;;21.53;50.37;94808.41;5106367;28;20024;-74
2023/07/30 01:13:15;;;;;;;3.95;2.72;;;;;;;21.48;50.31;94805.13;5108315;28;20401;-75
2023/07/30 01:15:41;;;;;;;4.85;2.80;;;;;;;21.52;50.04;94813.25;5107295;28;20498;-75
2023/07/30 01:18:09;;;;;;;4.35;2.65;;;;;;;21.48;49.78;94821.91;5107910;28;20044;-75
2023/07/30 01:20:35;;;;;;;4.57;2.42;;;;;;;21.46;50.13;94818.09;5108181;28;20040;-75
2023/07/30 01:23:00;;;;;;;4.45;2.40;;;;;;;21.41;49.97;94816.84;5108378;28;20073;-75
2023/07/30 01:25:29;;;;;;;4.30;2.97;;;;;;;21.40;50.40;94814.56;5108891;28;20027;-75
2023/07/30 01:27:59;;;;;;;3.45;2.47;;;;;;;21.36;50.20;94816.84;5106304;28;20032;-74
2023/07/30 01:30:35;;;;;;;3.53;2.40;;;;;;;21.29;49.93;94809.75;5108957;28;20019;-74
2023/07/30 01:33:01;;;;;;;4.97;2.40;;;;;;;21.26;50.01;94813.50;5089243;28;20115;-74
2023/07/30 01:35:27;;;;;;;3.60;2.47;;;;;;;21.24;50.32;94810.47;5107433;28;20057;-75
2023/07/30 01:37:53;;;;;;;3.72;2.63;;;;;;;21.20;49.98;94813.53;5106696;28;20028;-75
2023/07/30 01:40:19;;;;;;;2.70;2.15;;;;;;;21.19;50.11;94817.59;5106497;28;20553;-76
2023/07/30 01:42:45;;;;;;;3.15;2.45;;;;;;;21.16;50.12;94813.03;5108840;28;20024;-75
2023/07/30 01:45:10;;;;;;;4.80;2.47;;;;;;;21.13;50.51;94818.88;5106845;28;20111;-74
2023/07/30 01:47:36;;;;;;;6.32;2.70;;;;;;;21.10;50.53;94825.47;5108537;28;20133;-75
2023/07/30 01:50:01;;;;;;;3.47;2.40;;;;;;;21.11;50.34;94816.59;5105426;28;20102;-74
2023/07/30 01:52:26;;;;;;;4.40;2.58;;;;;;;21.10;50.47;94822.66;5107195;28;20077;-75
2023/07/30 01:54:52;;;;;;;3.60;2.65;;;;;;;21.08;50.65;94814.81;5107389;27;20111;-74
2023/07/30 01:57:17;;;;;;;5.00;2.72;;;;;;;21.08;50.83;94822.44;5108446;28;20505;-76
2023/07/30 01:59:43;;;;;;;4.25;3.05;;;;;;;21.05;50.60;94817.88;5108592;28;20085;-76
2023/07/30 02:02:08;;;;;;;3.45;2.50;;;;;;;21.06;50.62;94819.38;5107786;28;20437;-75
2023/07/30 02:04:33;;;;;;;3.50;2.97;;;;;;;20.96;51.16;94816.09;5108354;28;20477;-75
2023/07/30 02:06:59;;;;;;;4.97;3.22;;;;;;;20.95;51.16;94823.69;5106595;28;20027;-74
2023/07/30 02:09:25;;;;;;;6.20;3.63;;;;;;;20.99;51.50;94820.66;5106769;28;20027;-74
2023/07/30 02:11:50;;;;;;;4.07;3.20;;;;;;;20.96;51.43;94816.09;5106338;28;20023;-74
2023/07/30 02:14:17;;;;;;;3.92;2.67;;;;;;;20.88;51.62;94817.88;5108267;28;20405;-74
2023/07/30 02:16:43;;;;;;;4.35;2.70;;;;;;;20.90;51.72;94813.28;5106716;28;20032;-75
2023/07/30 02:19:08;;;;;;;4.60;3.10;;;;;;;20.86;51.87;94818.34;5105906;28;20016;-74
2023/07/30 02:21:38;;;;;;;5.38;2.95;;;;;;;20.87;51.62;94824.69;5107548;28;20023;-74
2023/07/30 02:24:04;;;;;;;4.30;2.65;;;;;;;20.85;51.77;94827.25;5106372;28;20019;-74
2023/07/30 02:26:29;;;;;;;4.93;2.97;;;;;;;20.83;52.04;94829.81;5107781;28;20446;-75
2023/07/30 02:28:55;;;;;;;3.35;2.55;;;;;;;20.80;51.87;94823.19;5104650;28;20032;-73
2023/07/30 02:31:20;;;;;;;3.42;2.80;;;;;;;20.79;51.96;94835.63;5107744;28;20023;-74
2023/07/30 02:33:46;;;;;;;5.07;3.10;;;;;;;20.78;51.96;94839.69;5106362;28;20102;-75
2023/07/30 02:36:11;;;;;;;4.43;3.38;;;;;;;20.79;51.84;94829.28;5107730;28;20049;-74
2023/07/30 02:38:37;;;;;;;6.05;3.00;;;;;;;20.76;51.99;94828.28;5107124;28;20359;-74
2023/07/30 02:41:02;;;;;;;6.72;2.90;;;;;;;20.74;52.27;94841.97;5106095;28;20024;-74
2023/07/30 02:43:28;;;;;;;5.45;3.15;;;;;;;20.63;52.35;94834.34;5107658;28;20076;-75
2023/07/30 02:45:53;;;;;;;4.95;3.15;;;;;;;20.68;52.14;94841.97;5106038;28;20549;-75
2023/07/30 02:48:18;;;;;;;5.07;2.70;;;;;;;20.64;52.38;94837.88;5107503;28;20032;-75
2023/07/30 02:50:44;;;;;;;3.75;3.00;;;;;;;20.61;52.19;94834.09;5105632;28;20378;-74
2023/07/30 02:53:10;;;;;;;3.03;2.67;;;;;;;20.54;52.44;94833.81;5107495;28;20016;-75
2023/07/30 02:55:35;;;;;;;6.68;3.20;;;;;;;20.50;52.38;94834.06;5106495;28;20149;-75
2023/07/30 02:58:00;;;;;;;6.47;3.10;;;;;;;20.50;52.77;94841.69;5106754;28;20038;-75
2023/07/30 03:00:26;;;;;;;4.75;2.88;;;;;;;20.47;52.62;94842.69;5107337;28;20099;-75
2023/07/30 03:02:51;;;;;;;4.43;2.85;;;;;;;20.43;53.00;94838.09;5105375;28;20470;-74
2023/07/30 03:05:16;;;;;;;4.28;2.92;;;;;;;20.38;52.88;94841.63;5107410;28;20035;-73
2023/07/30 03:07:42;;;;;;;4.53;3.53;;;;;;;20.35;52.65;94845.41;5105105;28;20537;-74
2023/07/30 03:10:08;;;;;;;6.18;2.95;;;;;;;20.34;53.02;94845.91;5107505;28;20026;-73
2023/07/30 03:12:33;;;;;;;5.35;3.08;;;;;;;20.33;52.90;94841.59;5105633;28;20020;-74
2023/07/30 03:14:58;;;;;;;6.43;3.22;;;;;;;20.27;52.94;94846.41;5105508;28;20050;-74
2023/07/30 03:17:24;;;;;;;5.57;3.20;;;;;;;20.23;53.21;94843.09;5106509;28;20179;-75
2023/07/30 03:19:49;;;;;;;6.25;2.75;;;;;;;20.19;52.93;94840.56;5104556;28;20039;-75
2023/07/30 03:22:14;;;;;;;5.28;3.33;;;;;;;20.23;52.83;94841.06;5107356;28;20103;-75
2023/07/30 03:24:41;;;;;;;4.22;3.20;;;;;;;20.20;53.11;94842.09;5104890;28;20019;-76
2023/07/30 03:27:06;;;;;;;7.93;3.47;;;;;;;20.17;53.20;94837.50;5107181;28;20028;-75
2023/07/30 03:29:32;;;;;;;7.93;3.33;;;;;;;20.15;52.99;94846.38;5105086;28;20024;-74
2023/07/30 03:31:57;;;;;;;6.95;3.38;;;;;;;20.14;53.14;94842.06;5107202;28;20024;-74
2023/07/30 03:34:23;;;;;;;8.30;3.80;;;;;;;20.13;53.26;94837.00;5106190;28;20032;-74
2023/07/30 03:36:48;;;;;;;4.97;3.10;;;;;;;20.12;53.30;94839.00;5106270;28;20023;-74
2023/07/30 03:39:13;;;;;;;6.15;3.38;;;;;;;20.09;53.64;94837.22;5106687;28;20027;-75
2023/07/30 03:41:39;;;;;;;6.15;3.20;;;;;;;20.10;53.66;94835.94;5105160;28;20054;-74
2023/07/30 03:44:04;;;;;;;6.18;3.33;;;;;;;20.14;53.43;94841.31;5107200;28;20498;-74
2023/07/30 03:46:30;;;;;;;5.68;3.35;;;;;;;20.19;53.05;94837.78;5104892;28;20116;-74
2023/07/30 03:48:55;;;;;;;4.80;3.67;;;;;;;20.15;53.17;94835.22;5105698;28;20027;-74
2023/07/30 03:51:20;;;;;;;5.82;3.80;;;;;;;20.17;52.99;94845.88;5105344;28;20151;-74
2023/07/30 03:53:46;;;;;;;4.63;3.08;;;;;;;20.22;53.01;94852.75;5106497;28;20043;-75
2023/07/30 03:56:11;;;;;;;4.70;2.85;;;;;;;20.25;53.17;94855.28;5106202;28;20034;-74
2023/07/30 03:58:37;;;;;;;7.05;3.53;;;;;;;20.19;53.08;94851.72;5105610;28;20100;-74
2023/07/30 04:01:02;;;;;;;4.00;3.10;;;;;;;20.20;52.87;94852.50;5106833;28;20077;-74
2023/07/30 04:03:27;;;;;;;4.38;2.95;;;;;;;20.22;52.58;94858.31;5104665;28;20035;-74
2023/07/30 04:05:53;;;;;;;4.25;2.63;;;;;;;20.23;52.67;94849.44;5107118;28;20030;-74
2023/07/30 04:08:18;;;;;;;4.05;2.65;;;;;;;20.26;52.69;94856.81;5103780;28;20032;-76
2023/07/30 04:10:44;;;;;;;4.72;2.92;;;;;;;20.25;52.34;94855.28;5088125;28;20522;-75
2023/07/30 04:13:09;;;;;;;4.65;2.78;;;;;;;20.31;52.04;94858.09;5105588;28;20096;-75
2023/07/30 04:15:34;;;;;;;5.60;2.63;;;;;;;20.34;52.20;94863.44;5107089;28;20035;-74
2023/07/30 04:18:00;;;;;;;5.93;3.20;;;;;;;20.36;51.86;94860.91;5109999;28;20075;-76
2023/07/30 04:20:25;;;;;;;4.32;3.08;;;;;;;20.39;52.13;94864.72;5090240;28;20032;-76
2023/07/30 04:22:51;;;;;;;5.95;3.40;;;;;;;20.39;52.51;94865.47;5110514;28;20019;-76
2023/07/30 04:25:17;;;;;;;5.68;3.10;;;;;;;20.38;52.54;94861.16;5108331;28;20030;-75
2023/07/30 04:27:42;;;;;;;4.20;3.45;;;;;;;20.41;52.85;94868.56;5110048;28;20370;-74
2023/07/30 04:30:08;;;;;;;5.32;3.05;;;;;;;20.42;52.50;94864.50;5108802;28;20020;-75
2023/07/30 04:32:33;;;;;;;7.20;3.30;;;;;;;20.48;52.33;94869.34;5108575;28;20055;-75
2023/07/30 04:35:00;;;;;;;4.95;2.88;;;;;;;20.51;52.45;94865.53;5109558;28;20485;-76
2023/07/30 04:37:25;;;;;;;6.97;3.42;;;;;;;20.54;52.36;94873.69;5108821;28;20019;-75
2023/07/30 04:39:51;;;;;;;4.68;2.88;;;;;;;20.57;52.58;94877.47;5110102;28;20104;-75
2023/07/30 04:42:16;;;;;;;5.20;3.28;;;;;;;20.59;52.30;94874.97;5108246;28;20034;-74
2023/07/30 04:44:41;;;;;;;5.50;3.75;;;;;;;20.64;52.33;94880.56;5109825;28;20024;-76
2023/07/30 04:47:07;;;;;;;6.50;3.58;;;;;;;20.69;51.87;94871.41;5108193;28;20028;-74
2023/07/30 04:49:33;;;;;;;8.02;3.90;;;;;;;20.72;51.97;94878.03;5109474;28;20043;-75
2023/07/30 04:51:58;;;;;;;5.18;3.55;;;;;;;20.78;51.95;94875.25;5107181;28;20027;-74
2023/07/30 04:54:23;;;;;;;5.85;3.70;;;;;;;20.78;51.89;94884.38;5109279;28;20106;-76
2023/07/30 04:56:49;;;;;;;5.95;3.53;;;;;;;20.80;51.87;94879.06;5109187;28;20024;-76
2023/07/30 04:59:14;;;;;;;9.10;4.30;;;;;;;20.83;51.68;94877.28;5108358;28;20110;-75
2023/07/30 05:01:39;;;;;;;7.10;4.00;;;;;;;20.84;51.78;94876.00;5109623;28;20038;-75
2023/07/30 05:04:05;;;;;;;4.57;3.53;;;;;;;20.88;51.82;94871.72;5107769;28;20111;-74
2023/07/30 05:06:30;;;;;;;5.47;4.80;;;;;;;20.91;51.40;94872.72;5109546;28;20023;-75
2023/07/30 05:08:56;;;;;;;6.45;5.10;;;;;;;20.97;51.72;94879.06;5107825;28;20456;-76
2023/07/30 05:11:21;;;;;;;7.65;4.63;;;;;;;21.00;51.62;94874.50;5109485;28;20110;-75
2023/07/30 05:13:47;;;;;;;6.00;3.90;;;;;;;21.00;51.60;94875.28;5108455;28;20027;-74
2023/07/30 05:16:12;;;;;;;5.18;3.80;;;;;;;21.03;51.31;94868.66;5108060;28;20474;-75
2023/07/30 05:18:37;;;;;;;5.22;3.83;;;;;;;21.05;51.30;94877.31;5108945;28;20543;-76
2023/07/30 05:21:03;;;;;;;5.85;3.63;;;;;;;21.10;51.59;94881.34;5107627;28;20055;-76
2023/07/30 05:23:28;;;;;;;6.97;3.40;;;;;;;21.09;51.12;94863.06;5108950;28;20402;-75
2023/07/30 05:25:53;;;;;;;4.47;3.53;;;;;;;21.15;51.13;94870.19;5106851;28;20096;-75
2023/07/30 05:28:19;;;;;;;4.35;3.30;;;;;;;21.17;50.91;94866.91;5108867;28;20063;-75
2023/07/30 05:30:44;;;;;;;5.25;3.50;;;;;;;21.19;50.84;94870.69;5107251;28;20015;-75
2023/07/30 05:33:09;;;;;;;3.85;3.05;;;;;;;21.18;50.50;94866.38;5107222;28;20028;-75
2023/07/30 05:35:35;;;;;;;3.75;3.20;;;;;;;21.20;50.58;94868.66;5108115;28;20015;-75
2023/07/30 05:38:00;;;;;;;4.32;3.17;;;;;;;21.26;50.51;94872.22;5108073;27;20012;-75
2023/07/30 05:40:26;;;;;;;5.72;3.40;;;;;;;21.33;50.52;94880.13;5108462;28;20384;-74
2023/07/30 05:42:51;;;;;;;5.00;3.30;;;;;;;21.32;50.65;94875.81;5106754;28;20037;-75
2023/07/30 05:45:17;;;;;;;5.13;3.50;;;;;;;21.39;50.53;94880.13;5108660;28;20066;-76
2023/07/30 05:47:42;;;;;;;4.15;2.95;;;;;;;21.37;50.29;94877.06;5107172;27;20088;-76
2023/07/30 05:50:08;;;;;;;5.80;3.33;;;;;;;21.38;50.36;94884.94;5108576;28;20111;-76
2023/07/30 05:52:33;;;;;;;6.22;3.28;;;;;;;21.40;50.48;94881.66;5106321;28;20116;-76
2023/07/30 05:54:59;;;;;;;5.45;3.70;;;;;;;21.43;50.32;94875.78;5108012;28;20106;-76
2023/07/30 05:57:25;;;;;;;5.93;3.35;;;;;;;21.48;50.14;94886.22;5107825;28;20080;-76
2023/07/30 05:59:50;;;;;;;6.78;3.63;;;;;;;21.56;50.00;94891.28;5106850;28;20027;-76
2023/07/30 06:02:16;;;;;;;3.45;3.00;;;;;;;21.54;50.18;94886.22;5107036;28;20019;-76
2023/07/30 06:04:41;;;;;;;4.65;3.45;;;;;;;21.64;49.84;94889.50;5106172;28;20038;-77
2023/07/30 06:07:07;;;;;;;4.78;3.20;;;;;;;21.63;49.78;94874.75;5108278;28;20023;-76
2023/07/30 06:09:32;;;;;;;5.28;3.30;;;;;;;21.70;49.63;94893.06;5106481;28;20031;-76
2023/07/30 06:11:58;;;;;;;4.43;3.63;;;;;;;21.73;49.64;94886.44;5107962;28;20024;-76
2023/07/30 06:14:26;;;;;;;5.43;3.25;;;;;;;21.85;49.61;94887.16;5107603;27;20027;-76
2023/07/30 06:16:53;;;;;;;4.90;3.42;;;;;;;21.93;49.30;94885.38;5088289;28;20116;-75
2023/07/30 06:19:18;;;;;;;4.90;3.15;;;;;;;21.99;49.70;94889.69;5108081;27;20065;-76
2023/07/30 06:21:44;;;;;;;5.35;3.22;;;;;;;22.10;49.34;94885.34;5105997;28;20051;-78
2023/07/30 06:24:09;;;;;;;5.93;3.40;;;;;;;22.12;49.34;94891.94;5108280;28;20020;-75
2023/07/30 06:26:35;;;;;;;5.03;3.70;;;;;;;22.22;49.31;94884.03;5106097;28;20102;-75
2023/07/30 06:29:00;;;;;;;8.82;3.75;;;;;;;22.28;48.63;94884.78;5106131;28;20493;-75
2023/07/30 06:31:25;;;;;;;6.35;3.53;;;;;;;22.32;48.88;94882.47;5105535;28;20118;-76
2023/07/30 06:33:51;;;;;;;6.10;3.80;;;;;;;22.35;48.64;94881.44;5105471;28;20023;-74
2023/07/30 06:36:16;;;;;;;4.10;3.60;;;;;;;22.40;48.20;94874.28;5107288;28;20031;-75
2023/07/30 06:38:42;;;;;;;4.72;3.78;;;;;;;22.46;47.96;94875.78;5105334;28;20107;-76
2023/07/30 06:41:07;;;;;;;4.10;3.70;;;;;;;22.57;48.33;94874.19;5107402;28;20126;-75
2023/07/30 06:43:32;;;;;;;5.55;3.25;;;;;;;22.67;48.36;94867.03;5104230;28;20107;-76
2023/07/30 06:45:58;;;;;;;5.28;3.65;;;;;;;22.73;47.88;94865.69;5107409;28;20079;-76
2023/07/30 06:48:23;;;;;;;4.47;3.25;;;;;;;22.89;46.69;94866.91;5106139;28;20023;-76
2023/07/30 06:50:49;;;;;;;5.88;3.28;;;;;;;22.95;46.71;94864.81;5105143;28;20195;-76
2023/07/30 06:53:14;;;;;;;5.65;3.42;;;;;;;22.98;47.10;94858.16;5105354;28;20524;-75
2023/07/30 06:55:39;;;;;;;4.40;3.38;;;;;;;23.13;46.95;94854.25;5105738;28;20476;-76
2023/07/30 06:58:05;;;;;;;3.95;3.30;;;;;;;23.20;46.53;94857.22;5107497;28;20024;-73
2023/07/30 07:00:30;;;;;;;6.47;3.55;;;;;;;23.28;46.36;94857.41;5105295;28;20095;-74
2023/07/30 07:02:56;;;;;;;4.32;3.40;;;;;;;23.42;45.96;94852.72;5105862;28;20032;-75
2023/07/30 07:05:21;;;;;;;7.03;3.28;;;;;;;23.50;45.87;94845.25;5105919;28;20028;-74
2023/07/30 07:07:47;;;;;;;5.53;3.83;;;;;;;23.57;45.59;94847.50;5105168;28;20044;-75
2023/07/30 07:10:12;;;;;;;6.68;3.55;;;;;;;23.68;45.33;94838.97;5106552;28;20035;-74
2023/07/30 07:12:38;;;;;;;6.28;3.70;;;;;;;23.80;44.90;94848.06;5104703;28;20561;-74
2023/07/30 07:15:05;;;;;;;5.03;3.70;;;;;;;23.90;44.59;94834.41;5106719;28;20091;-74
2023/07/30 07:17:30;;;;;;;4.38;3.20;;;;;;;24.00;44.30;94832.75;5103749;28;20046;-75
2023/07/30 07:19:57;;;;;;;6.78;3.53;;;;;;;24.07;44.48;94834.97;5107197;28;20052;-75
2023/07/30 07:22:23;;;;;;;7.57;3.50;;;;;;;24.14;44.43;94825.94;5105297;28;20035;-75
2023/07/30 07:24:48;;;;;;;6.18;3.13;;;;;;;24.33;43.46;94835.16;5088250;28;20039;-75
2023/07/30 07:27:14;;;;;;;5.78;3.45;;;;;;;24.38;43.06;94822.38;5105384;28;20468;-75
2023/07/30 07:29:39;;;;;;;4.32;3.58;;;;;;;24.43;43.35;94815.91;5106136;28;20080;-74
2023/07/30 07:32:05;;;;;;;10.05;3.15;;;;;;;24.51;43.33;94825.25;5105024;28;20058;-74
2023/07/30 07:34:31;;;;;;;4.07;3.20;;;;;;;24.71;42.12;94809.88;5105788;28;20103;-75
2023/07/30 07:36:56;;;;;;;6.10;3.35;;;;;;;24.85;42.08;94810.72;5106859;28;20028;-75
2023/07/30 07:39:21;;;;;;;4.90;3.63;;;;;;;24.96;41.33;94813.34;5104964;28;20028;-75
2023/07/30 07:41:47;;;;;;;6.80;3.60;;;;;;;24.95;41.41;94817.47;5106433;28;20127;-74
2023/07/30 07:44:12;;;;;;;5.72;3.45;;;;;;;25.05;41.01;94810.16;5104059;28;20126;-76
2023/07/30 07:46:37;;;;;;;4.80;3.25;;;;;;;25.16;40.78;94806.41;5106247;28;20020;-75
2023/07/30 07:49:03;;;;;;;5.53;3.30;;;;;;;25.28;41.08;94809.78;5106269;28;20020;-79
2023/07/30 07:51:29;;;;;;;5.15;3.40;;;;;;;25.49;40.47;94813.50;5109870;28;20019;-76
2023/07/30 07:53:54;;;;;;;4.35;2.90;;;;;;;25.54;40.20;94807.03;5110514;28;20097;-78
2023/07/30 07:56:19;;;;;;;5.35;3.00;;;;;;;25.70;39.70;94808.03;5109201;28;20033;-78
2023/07/30 07:58:45;;;;;;;8.18;3.28;;;;;;;25.81;39.26;94802.19;5110381;28;20024;-77
2023/07/30 08:01:10;;;;;;;5.70;3.25;;;;;;;25.96;38.67;94801.66;5109080;28;20024;-78
2023/07/30 08:03:35;;;;;;;4.82;3.05;;;;;;;26.03;38.20;94803.03;5110513;28;20019;-78
2023/07/30 08:06:01;;;;;;;4.30;3.15;;;;;;;26.11;37.97;94798.28;5109034;28;20043;-78
2023/07/30 08:08:27;;;;;;;9.80;3.67;;;;;;;26.23;38.06;94796.00;5109822;28;20059;-79
2023/07/30 08:10:52;;;;;;;4.30;3.42;;;;;;;26.30;37.88;94801.72;5108333;28;20036;-76
2023/07/30 08:13:18;;;;;;;5.15;3.33;;;;;;;26.39;37.74;94795.63;5109105;28;20024;-78
2023/07/30 08:15:43;;;;;;;4.70;3.17;;;;;;;26.44;37.67;94785.59;5109996;27;20085;-81
2023/07/30 08:18:09;;;;;;;5.00;3.28;;;;;;;26.58;36.72;94787.03;5108180;28;20104;-80
2023/07/30 08:20:34;;;;;;;5.03;3.00;;;;;;;26.72;36.05;94797.00;5109996;28;20056;-79
2023/07/30 08:23:00;;;;;;;4.95;3.35;;;;;;;26.78;35.81;94796.84;5108723;28;20110;-75
2023/07/30 08:25:25;;;;;;;5.25;3.40;;;;;;;26.87;35.83;94792.78;5110143;28;20777;-76
2023/07/30 08:27:50;;;;;;;4.70;2.92;;;;;;;27.08;34.63;94792.84;5108968;28;20394;-77
2023/07/30 08:30:16;;;;;;;5.07;2.92;;;;;;;27.15;34.25;94783.69;5109609;28;20072;-79
2023/07/30 08:32:43;;;;;;;4.63;3.03;;;;;;;27.24;34.57;94786.00;5109413;28;20016;-78
2023/07/30 08:35:08;;;;;;;4.53;2.85;;;;;;;27.36;34.46;94775.97;5108502;27;20051;-76
2023/07/30 08:37:34;;;;;;;5.22;3.67;;;;;;;27.42;34.72;94784.31;5109556;28;20568;-76
2023/07/30 08:39:59;;;;;;;4.50;2.97;;;;;;;27.53;34.59;94775.53;5108383;28;20032;-77
2023/07/30 08:42:24;;;;;;;4.45;3.10;;;;;;;27.66;34.14;94774.69;5109957;28;20106;-76
2023/07/30 08:44:50;;;;;;;4.60;3.28;;;;;;;27.73;34.01;94774.75;5106653;28;20030;-77
2023/07/30 08:47:15;;;;;;;4.85;3.10;;;;;;;27.92;33.97;94768.84;5109282;28;21071;-76
2023/07/30 08:49:41;;;;;;;4.25;3.08;;;;;;;28.06;33.56;94772.31;5108848;28;20027;-77
2023/07/30 08:52:09;;;;;;;6.13;3.03;;;;;;;28.17;33.24;94777.66;5108492;28;20117;-79
2023/07/30 08:54:36;;;;;;;5.00;3.15;;;;;;;28.34;32.95;94768.69;5109649;28;20042;-78
2023/07/30 08:57:02;;;;;;;4.80;2.83;;;;;;;28.40;32.94;94765.72;5106459;28;20024;-75
2023/07/30 08:59:31;;;;;;;4.13;3.00;;;;;;;28.55;32.75;94760.84;5109268;28;20024;-79
2023/07/30 09:01:58;;;;;;;3.80;2.97;;;;;;;28.64;32.45;94759.56;5107557;28;20032;-82
2023/07/30 09:04:23;;;;;;;5.25;2.90;;;;;;;28.75;32.29;94762.03;5108262;28;20119;-87
2023/07/30 09:06:49;;;;;;;5.43;3.03;;;;;;;28.87;32.29;94756.03;5107420;28;20106;-82
2023/07/30 09:09:15;;;;;;;5.07;2.60;;;;;;;29.02;32.20;94761.75;5108374;28;20027;-81
2023/07/30 09:11:40;;;;;;;4.85;2.88;;;;;;;29.13;32.20;94755.69;5109176;28;20508;-78
2023/07/30 09:14:06;;;;;;;5.32;3.10;;;;;;;29.35;31.24;94759.84;5108197;28;20015;-78
2023/07/30 09:16:32;;;;;;;4.63;3.13;;;;;;;29.42;31.32;94752.66;5108842;28;20059;-81
2023/07/30 09:18:57;;;;;;;3.70;2.72;;;;;;;29.52;31.98;94754.41;5108017;28;20031;-80
2023/07/30 09:21:30;;;;;;;6.05;3.13;;;;;;;29.73;31.82;94748.53;5107955;28;20024;-81
2023/07/30 09:23:56;;;;;;;4.72;2.83;;;;;;;29.84;31.25;94756.63;5106675;28;20028;-79
2023/07/30 09:26:22;;;;;;;4.45;3.05;;;;;;;30.01;30.83;94753.19;5106607;28;20085;-81
2023/07/30 09:28:47;;;;;;;4.18;2.90;;;;;;;30.21;29.45;94740.09;5108302;28;20027;-80
2023/07/30 09:31:13;;;;;;;5.00;3.22;;;;;;;30.31;29.40;94745.94;5107832;28;20032;-83
2023/07/30 09:33:42;;;;;;;4.03;2.47;;;;;;;30.52;28.18;94737.16;5109340;28;20024;-84
2023/07/30 09:36:08;;;;;;;3.67;2.50;;;;;;;30.83;27.79;94732.81;5105825;28;20020;-86
2023/07/30 09:38:39;;;;;;;4.32;2.78;;;;;;;31.04;27.73;94731.75;5109125;28;20053;-85
2023/07/30 09:41:04;;;;;;;3.67;2.33;;;;;;;31.16;27.27;94733.53;5106292;28;20500;-81
2023/07/30 09:43:32;;;;;;;8.85;2.75;;;;;;;31.36;27.15;94728.09;5107942;27;20024;-81
2023/07/30 09:46:06;;;;;;;96.30;8.10;;;;;;;31.43;27.71;94727.28;5106597;28;20496;-79
2023/07/30 09:48:32;;;;;;;279.65;19.83;;;;;;;31.53;30.26;94722.44;5107024;28;20087;-78
2023/07/30 09:51:03;;;;;;;25.27;4.28;;;;;;;31.69;29.85;94723.06;5107416;28;20099;-72
2023/07/30 09:53:35;;;;;;;52.70;6.38;;;;;;;31.81;30.37;94721.25;5107006;28;20031;-76
2023/07/30 09:56:05;;;;;;;188.30;13.70;;;;;;;31.97;28.74;94714.06;5108523;28;20024;-76
2023/07/30 09:58:31;;;;;;;78.18;8.32;;;;;;;32.14;28.05;94719.00;5107371;28;20757;-78
2023/07/30 10:01:00;;;;;;;4.00;3.00;;;;;;;32.30;25.36;94716.72;5089199;28;20036;-77
2023/07/30 10:03:27;;;;;;;7.20;2.90;;;;;;;32.45;25.35;94707.25;5106696;28;20056;-76
2023/07/30 10:05:56;;;;;;;38.38;6.72;;;;;;;32.56;26.37;94705.97;5104857;28;20038;-75
2023/07/30 10:09:15;;;;;;;36.70;5.07;;;;;;;32.84;24.51;94701.78;5096467;27;1530357;-74
2023/07/30 10:11:41;;;;;;;11.50;3.47;;;;;;;33.00;24.96;94695.31;5124419;28;20505;-76
2023/07/30 10:14:07;;;;;;;53.15;6.90;;;;;;;33.19;24.85;94691.78;5124129;28;20054;-76
2023/07/30 10:16:33;;;;;;;6.22;2.85;;;;;;;33.33;24.53;94689.28;5126124;27;20481;-76
2023/07/30 10:18:58;;;;;;;6.22;3.10;;;;;;;33.53;25.44;94687.25;5123068;28;20573;-77
2023/07/30 10:21:26;;;;;;;20.70;4.75;;;;;;;33.67;26.97;94685.47;5126040;27;20019;-76
2023/07/30 10:24:02;;;;;;;10.10;4.10;;;;;;;33.78;27.62;94678.44;5122913;28;20024;-75
2023/07/30 10:26:30;;;;;;;6.75;3.38;;;;;;;33.96;28.92;94676.22;5125879;27;20378;-73
2023/07/30 10:29:19;;;;;;;5.40;3.13;;;;;;;34.13;25.25;94678.19;5124141;28;20037;-75
2023/07/30 10:31:56;;;;;;;4.65;2.95;;;;;;;34.22;25.15;94672.44;5124151;27;20035;-72
2023/07/30 10:34:22;;;;;;;12.73;3.10;;;;;;;34.32;23.37;94672.44;5124683;28;20365;-73
2023/07/30 10:36:49;;;;;;;6.43;3.00;;;;;;;34.46;23.31;94661.31;5122542;28;20111;-77
2023/07/30 10:39:34;;;;;;;5.10;3.38;;;;;;;34.65;23.53;94671.97;5126272;27;20054;-73
2023/07/30 10:42:00;;;;;;;8.70;3.10;;;;;;;34.76;23.51;94657.78;5111736;27;20035;-76
2023/07/30 10:44:33;;;;;;;5.70;3.08;;;;;;;34.96;22.68;94655.63;5104174;28;20028;-75
2023/07/30 10:47:01;;;;;;;6.00;2.90;;;;;;;35.03;23.03;94651.09;5105290;28;20028;-76
2023/07/30 10:49:27;;;;;;;6.07;3.08;;;;;;;35.16;22.89;94641.28;5102629;28;20019;-74
2023/07/30 10:51:53;;;;;;;5.95;2.80;;;;;;;35.23;22.77;94643.19;5104916;28;20027;-77
2023/07/30 10:54:19;;;;;;;7.18;3.50;;;;;;;35.28;23.45;94636.41;5102786;28;20049;-76
2023/07/30 10:56:45;;;;;;;7.07;3.50;;;;;;;35.25;23.40;94631.88;5106061;28;20108;-75
2023/07/30 10:59:11;;;;;;;5.55;3.10;;;;;;;35.30;22.73;94637.28;5086548;28;20039;-76
2023/07/30 11:01:41;;;;;;;11.77;3.88;;;;;;;35.55;22.70;94636.09;5102381;28;20024;-76
2023/07/30 11:04:12;;;;;;;5.32;2.83;;;;;;;35.72;21.48;94626.47;5105120;28;20035;-78
2023/07/30 11:06:38;;;;;;;5.18;3.33;;;;;;;35.64;21.95;94624.59;5102159;28;20126;-77
2023/07/30 11:09:03;;;;;;;3.58;2.65;;;;;;;35.83;20.40;94623.69;5103613;28;20123;-79
2023/07/30 11:11:29;;;;;;;7.88;3.20;;;;;;;35.91;22.28;94623.47;5103187;28;20445;-76
2023/07/30 11:13:54;;;;;;;5.28;3.00;;;;;;;35.86;20.91;94605.31;5103563;28;20038;-76
2023/07/30 11:16:20;;;;;;;4.03;2.97;;;;;;;35.93;20.33;94609.34;5102957;28;20023;-76
2023/07/30 11:18:47;;;;;;;5.32;3.20;;;;;;;35.94;20.56;94604.38;5100142;28;20024;-76
2023/07/30 11:21:18;;;;;;;4.82;3.15;;;;;;;36.01;21.24;94606.25;5089886;28;20085;-75
2023/07/30 11:23:44;;;;;;;35.35;5.70;;;;;;;36.09;21.68;94604.69;5089012;28;20062;-75
2023/07/30 11:26:15;;;;;;;7.35;3.08;;;;;;;36.10;21.70;94597.59;5089571;28;20016;-75